Time;durP1;ratioP1;P1;durP2;ratioP2;P2;SDS_P1;SDS_P2;PMS_P1;PMS_P2;Temp;Humidity;BMP_temperature;BMP_pressure;BME280_temperature;BME280_humidity;BME280_pressure;Samples;Min_cycle;Max_cycle;Signal;HPM_P1;HPM_P2
2022/07/02 00:00:52;;;;;;;7.18;2.05;;;;;;;;;;6175052;23;20381;-45
2022/07/02 00:03:21;;;;;;;9.05;2.17;;;;;;;;;;6175125;23;20024;-44
2022/07/02 00:05:48;;;;;;;9.70;3.28;;;;;;;;;;6163260;23;20017;-44
2022/07/02 00:08:16;;;;;;;7.63;1.98;;;;;;;;;;6177327;23;20013;-47
2022/07/02 00:10:43;;;;;;;6.53;1.77;;;;;;;;;;6166945;23;20013;-45
2022/07/02 00:13:10;;;;;;;7.53;2.28;;;;;;;;;;6174889;23;20021;-46
2022/07/02 00:15:37;;;;;;;8.15;1.80;;;;;;;;;;6160971;23;20017;-51
2022/07/02 00:18:03;;;;;;;5.60;2.25;;;;;;;;;;6173994;23;20395;-44
2022/07/02 00:20:30;;;;;;;8.60;2.67;;;;;;;;;;6152047;23;20377;-47
2022/07/02 00:22:57;;;;;;;12.40;2.05;;;;;;;;;;6170517;23;20017;-46
2022/07/02 00:25:27;;;;;;;5.70;1.30;;;;;;;;;;6164429;23;20019;-45
2022/07/02 00:27:54;;;;;;;5.60;1.70;;;;;;;;;;6174988;23;20437;-44
2022/07/02 00:30:21;;;;;;;7.55;3.38;;;;;;;;;;6163462;23;20047;-48
2022/07/02 00:32:47;;;;;;;7.00;2.00;;;;;;;;;;6170091;23;20451;-47
2022/07/02 00:35:15;;;;;;;5.10;2.33;;;;;;;;;;6140426;23;20069;-44
2022/07/02 00:37:41;;;;;;;3.90;1.83;;;;;;;;;;6175886;23;20017;-45
2022/07/02 00:40:08;;;;;;;12.82;1.85;;;;;;;;;;6160890;23;20352;-48
2022/07/02 00:42:37;;;;;;;5.43;1.85;;;;;;;;;;6171160;23;20021;-45
2022/07/02 00:45:03;;;;;;;6.13;1.73;;;;;;;;;;6157955;23;20017;-45
2022/07/02 00:47:31;;;;;;;5.80;2.47;;;;;;;;;;6175511;23;20020;-45
2022/07/02 00:49:57;;;;;;;7.43;1.92;;;;;;;;;;6164475;23;20391;-46
2022/07/02 00:52:24;;;;;;;6.55;2.33;;;;;;;;;;6161527;23;20044;-45
2022/07/02 00:54:51;;;;;;;4.10;1.92;;;;;;;;;;6160649;23;20032;-45
2022/07/02 00:57:17;;;;;;;5.10;1.75;;;;;;;;;;6163905;23;20081;-47
2022/07/02 00:59:45;;;;;;;6.18;2.47;;;;;;;;;;6164273;23;20057;-47
2022/07/02 01:02:12;;;;;;;11.57;2.50;;;;;;;;;;6180448;23;20025;-46
2022/07/02 01:04:41;;;;;;;5.35;2.58;;;;;;;;;;6162135;23;20023;-45
2022/07/02 01:07:08;;;;;;;7.75;2.10;;;;;;;;;;6166555;23;20021;-45
2022/07/02 01:12:22;;;;;;;5.20;2.10;;;;;;;;;;6157487;23;20590;-48
2022/07/02 01:14:50;;;;;;;12.60;2.50;;;;;;;;;;6175829;23;20013;-46
2022/07/02 01:17:16;;;;;;;11.30;2.05;;;;;;;;;;6177622;23;20020;-47
2022/07/02 01:19:43;;;;;;;5.07;2.05;;;;;;;;;;6176637;23;20040;-48
2022/07/02 01:22:20;;;;;;;6.03;2.25;;;;;;;;;;6167687;23;20021;-46
2022/07/02 01:24:47;;;;;;;12.25;2.90;;;;;;;;;;6171782;23;20550;-45
2022/07/02 01:27:14;;;;;;;6.75;2.05;;;;;;;;;;6159157;23;20463;-46
2022/07/02 01:29:41;;;;;;;13.77;2.97;;;;;;;;;;6172201;23;20084;-46
2022/07/02 01:32:08;;;;;;;9.63;2.38;;;;;;;;;;6170495;23;20436;-47
2022/07/02 01:34:35;;;;;;;9.05;2.28;;;;;;;;;;6175129;23;20013;-46
2022/07/02 01:37:01;;;;;;;7.32;2.72;;;;;;;;;;6170968;23;20445;-45
2022/07/02 01:39:29;;;;;;;6.22;2.22;;;;;;;;;;6174502;23;20013;-47
2022/07/02 01:41:56;;;;;;;5.70;2.35;;;;;;;;;;6169152;23;20021;-44
2022/07/02 01:44:22;;;;;;;5.72;2.00;;;;;;;;;;6170533;23;20013;-45
2022/07/02 01:46:49;;;;;;;6.15;2.10;;;;;;;;;;6169148;23;20474;-47
2022/07/02 01:49:15;;;;;;;9.32;2.50;;;;;;;;;;6170300;23;20595;-46
2022/07/02 01:51:42;;;;;;;14.57;3.45;;;;;;;;;;6171849;23;20017;-46
2022/07/02 01:54:08;;;;;;;7.72;2.47;;;;;;;;;;6174353;23;20047;-46
2022/07/02 01:56:37;;;;;;;6.53;2.08;;;;;;;;;;6163530;23;20013;-46
2022/07/02 01:59:04;;;;;;;10.27;2.40;;;;;;;;;;6175136;23;20017;-46
2022/07/02 02:01:30;;;;;;;9.88;2.45;;;;;;;;;;6171993;23;20021;-47
2022/07/02 02:03:57;;;;;;;5.35;2.28;;;;;;;;;;6171362;23;20028;-46
2022/07/02 02:06:23;;;;;;;4.25;2.45;;;;;;;;;;6163743;23;20013;-45
2022/07/02 02:08:50;;;;;;;5.68;2.33;;;;;;;;;;6176281;23;20017;-44
2022/07/02 02:11:17;;;;;;;9.77;2.20;;;;;;;;;;6165986;23;20091;-50
2022/07/02 02:13:45;;;;;;;7.10;2.40;;;;;;;;;;6172256;23;20412;-45
2022/07/02 02:16:11;;;;;;;9.77;2.65;;;;;;;;;;6159829;23;20048;-47
2022/07/02 02:18:38;;;;;;;4.75;2.35;;;;;;;;;;6171889;23;20020;-46
2022/07/02 02:21:05;;;;;;;7.72;3.47;;;;;;;;;;6153790;23;20036;-45
2022/07/02 02:23:31;;;;;;;6.95;2.40;;;;;;;;;;6171488;23;20017;-46
2022/07/02 02:25:57;;;;;;;6.47;2.15;;;;;;;;;;6170221;23;20077;-45
2022/07/02 02:28:24;;;;;;;7.65;2.80;;;;;;;;;;6181617;23;20017;-45
2022/07/02 02:30:52;;;;;;;7.10;2.15;;;;;;;;;;6166744;23;20627;-45
2022/07/02 02:33:18;;;;;;;3.90;2.47;;;;;;;;;;6166165;23;20091;-47
2022/07/02 02:35:45;;;;;;;8.63;2.30;;;;;;;;;;6165651;23;20024;-46
2022/07/02 02:38:11;;;;;;;9.27;2.88;;;;;;;;;;6176037;23;20019;-45
2022/07/02 02:40:40;;;;;;;6.80;2.72;;;;;;;;;;6171230;23;20032;-45
2022/07/02 02:43:06;;;;;;;9.23;2.53;;;;;;;;;;6174019;23;20021;-45
2022/07/02 02:45:33;;;;;;;6.50;2.60;;;;;;;;;;6175892;23;20064;-47
2022/07/02 02:48:01;;;;;;;4.97;2.65;;;;;;;;;;6173004;23;20045;-45
2022/07/02 02:50:27;;;;;;;6.40;2.53;;;;;;;;;;6158829;23;20013;-45
2022/07/02 02:52:54;;;;;;;7.32;2.67;;;;;;;;;;6171749;23;20040;-45
2022/07/02 02:55:20;;;;;;;9.70;2.85;;;;;;;;;;6146171;23;20021;-45
2022/07/02 02:57:47;;;;;;;9.05;2.15;;;;;;;;;;6171858;23;20017;-46
2022/07/02 03:00:14;;;;;;;7.68;2.10;;;;;;;;;;6154703;23;20104;-44
2022/07/02 03:02:41;;;;;;;11.77;3.28;;;;;;;;;;6169494;23;20021;-48
2022/07/02 03:05:09;;;;;;;8.35;3.03;;;;;;;;;;6177385;23;20013;-46
2022/07/02 03:07:35;;;;;;;6.05;3.28;;;;;;;;;;6171821;23;20860;-46
2022/07/02 03:10:02;;;;;;;9.10;2.33;;;;;;;;;;6169850;23;20076;-47
2022/07/02 03:12:28;;;;;;;6.93;2.13;;;;;;;;;;6168273;23;20017;-47
2022/07/02 03:14:55;;;;;;;8.95;2.33;;;;;;;;;;6179869;23;20064;-46
2022/07/02 03:17:21;;;;;;;6.90;2.90;;;;;;;;;;6178669;23;20017;-46
2022/07/02 03:19:51;;;;;;;9.38;2.90;;;;;;;;;;6166433;23;20013;-45
2022/07/02 03:22:19;;;;;;;15.60;3.78;;;;;;;;;;6167870;23;20031;-47
2022/07/02 03:24:45;;;;;;;7.10;2.95;;;;;;;;;;6171133;23;20079;-48
2022/07/02 03:27:12;;;;;;;7.65;2.35;;;;;;;;;;6168357;23;20069;-44
2022/07/02 03:29:38;;;;;;;9.23;2.30;;;;;;;;;;6179083;23;20036;-46
2022/07/02 03:32:05;;;;;;;9.02;3.05;;;;;;;;;;6165520;23;20012;-45
2022/07/02 03:34:32;;;;;;;9.00;2.60;;;;;;;;;;6180065;23;20044;-47
2022/07/02 03:36:58;;;;;;;9.77;3.13;;;;;;;;;;6162981;23;20020;-45
2022/07/02 03:39:26;;;;;;;7.32;2.45;;;;;;;;;;6173151;23;20067;-45
2022/07/02 03:41:53;;;;;;;9.85;2.50;;;;;;;;;;6164482;23;20024;-44
2022/07/02 03:44:19;;;;;;;9.10;2.33;;;;;;;;;;6178728;23;20016;-45
2022/07/02 03:46:46;;;;;;;8.05;2.60;;;;;;;;;;6155145;23;20016;-45
2022/07/02 03:49:12;;;;;;;11.07;3.03;;;;;;;;;;6171451;23;20021;-44
2022/07/02 03:51:39;;;;;;;4.43;2.35;;;;;;;;;;6171860;23;20020;-46
2022/07/02 03:54:05;;;;;;;7.28;2.55;;;;;;;;;;6166467;23;20310;-46
2022/07/02 03:56:33;;;;;;;9.43;2.72;;;;;;;;;;6174158;23;20075;-46
2022/07/02 03:59:00;;;;;;;7.03;2.55;;;;;;;;;;6165735;23;20013;-46
2022/07/02 04:01:27;;;;;;;7.00;2.88;;;;;;;;;;6160375;23;20023;-46
2022/07/02 04:03:53;;;;;;;6.95;2.40;;;;;;;;;;6171666;23;20048;-44
2022/07/02 04:06:21;;;;;;;4.90;2.10;;;;;;;;;;6171685;23;20017;-46
2022/07/02 04:08:47;;;;;;;11.40;2.50;;;;;;;;;;6176662;23;20017;-45
2022/07/02 04:11:14;;;;;;;6.32;2.55;;;;;;;;;;6170890;23;20021;-47
2022/07/02 04:13:42;;;;;;;9.60;2.78;;;;;;;;;;6172107;23;20073;-49
2022/07/02 04:16:08;;;;;;;8.65;2.90;;;;;;;;;;6145391;23;20013;-46
2022/07/02 04:18:35;;;;;;;8.77;2.65;;;;;;;;;;6169710;23;20028;-45
2022/07/02 04:21:01;;;;;;;15.55;2.92;;;;;;;;;;6171836;23;20068;-46
2022/07/02 04:23:27;;;;;;;7.00;3.28;;;;;;;;;;6172953;23;20496;-46
2022/07/02 04:25:54;;;;;;;6.15;2.50;;;;;;;;;;6173419;23;20013;-46
2022/07/02 04:28:20;;;;;;;6.43;2.63;;;;;;;;;;6174265;23;20068;-46
2022/07/02 04:30:48;;;;;;;8.50;2.25;;;;;;;;;;6158042;23;20017;-45
2022/07/02 04:33:15;;;;;;;3.42;1.92;;;;;;;;;;6173902;23;20020;-45
2022/07/02 04:35:41;;;;;;;5.55;3.13;;;;;;;;;;6166355;23;20013;-46
2022/07/02 04:38:08;;;;;;;8.93;2.38;;;;;;;;;;6172650;23;20436;-45
2022/07/02 04:40:34;;;;;;;7.05;2.40;;;;;;;;;;6163403;23;20013;-45
2022/07/02 04:43:01;;;;;;;12.75;2.67;;;;;;;;;;6149707;23;20020;-47
2022/07/02 04:45:27;;;;;;;4.15;2.45;;;;;;;;;;6173898;23;20017;-45
2022/07/02 04:47:55;;;;;;;6.55;1.77;;;;;;;;;;6176830;23;20013;-45
2022/07/02 04:50:22;;;;;;;5.07;2.17;;;;;;;;;;6168987;23;20009;-45
2022/07/02 04:52:48;;;;;;;3.10;2.25;;;;;;;;;;6167138;23;20013;-47
2022/07/02 04:55:14;;;;;;;7.43;1.95;;;;;;;;;;6176506;23;20016;-44
2022/07/02 04:57:41;;;;;;;8.38;3.20;;;;;;;;;;6159409;23;20305;-45
2022/07/02 05:00:10;;;;;;;5.50;2.17;;;;;;;;;;6179590;23;20013;-46
2022/07/02 05:02:38;;;;;;;7.78;2.30;;;;;;;;;;6175139;23;20421;-47
2022/07/02 05:05:07;;;;;;;6.82;2.17;;;;;;;;;;6166805;23;20048;-45
2022/07/02 05:07:33;;;;;;;7.57;2.67;;;;;;;;;;6178095;23;20013;-45
2022/07/02 05:10:00;;;;;;;2.53;2.13;;;;;;;;;;6177871;23;20290;-47
2022/07/02 05:12:26;;;;;;;9.75;2.00;;;;;;;;;;6163688;23;20021;-49
2022/07/02 05:14:53;;;;;;;7.13;2.25;;;;;;;;;;6170523;23;20112;-44
2022/07/02 05:17:19;;;;;;;7.32;2.10;;;;;;;;;;6174563;23;20017;-46
2022/07/02 05:19:46;;;;;;;10.50;2.00;;;;;;;;;;6150033;23;20044;-46
2022/07/02 05:22:14;;;;;;;5.55;2.30;;;;;;;;;;6151179;23;20466;-46
2022/07/02 05:24:40;;;;;;;5.15;2.55;;;;;;;;;;6176219;23;20092;-45
2022/07/02 05:27:07;;;;;;;9.35;2.40;;;;;;;;;;6162442;23;20013;-44
2022/07/02 05:29:33;;;;;;;4.18;2.20;;;;;;;;;;6172955;23;20071;-45
2022/07/02 05:31:59;;;;;;;5.32;2.28;;;;;;;;;;6158865;23;20101;-45
2022/07/02 05:34:26;;;;;;;8.93;2.50;;;;;;;;;;6168032;23;20017;-46
2022/07/02 05:36:52;;;;;;;7.90;2.03;;;;;;;;;;6171610;23;20767;-48
2022/07/02 05:39:20;;;;;;;8.40;2.65;;;;;;;;;;6168387;23;20522;-45
2022/07/02 05:41:47;;;;;;;4.75;2.15;;;;;;;;;;6167698;23;20017;-45
2022/07/02 05:44:14;;;;;;;8.60;2.75;;;;;;;;;;6168954;23;20020;-44
2022/07/02 05:46:42;;;;;;;5.68;2.25;;;;;;;;;;6173406;23;20017;-45
2022/07/02 05:49:08;;;;;;;9.52;2.88;;;;;;;;;;6145940;23;20890;-46
2022/07/02 05:51:35;;;;;;;6.35;2.78;;;;;;;;;;6131662;23;20048;-48
2022/07/02 05:54:01;;;;;;;10.07;2.17;;;;;;;;;;6170557;23;20072;-47
2022/07/02 05:56:29;;;;;;;6.40;2.50;;;;;;;;;;6175585;23;20021;-48
2022/07/02 05:58:56;;;;;;;4.70;2.45;;;;;;;;;;6161225;23;20506;-44
2022/07/02 06:01:22;;;;;;;12.02;2.92;;;;;;;;;;6171608;23;20040;-44
2022/07/02 06:03:49;;;;;;;8.05;2.10;;;;;;;;;;6159794;23;20027;-46
2022/07/02 06:08:59;;;;;;;6.90;2.30;;;;;;;;;;6171345;23;20013;-45
2022/07/02 06:11:26;;;;;;;6.88;2.42;;;;;;;;;;6176075;23;20478;-46
2022/07/02 06:13:54;;;;;;;8.52;2.53;;;;;;;;;;6158524;23;20570;-46
2022/07/02 06:16:20;;;;;;;8.30;3.15;;;;;;;;;;6174835;23;20016;-47
2022/07/02 06:18:46;;;;;;;7.38;2.42;;;;;;;;;;6164868;23;20337;-45
2022/07/02 06:21:13;;;;;;;6.00;2.17;;;;;;;;;;6170486;23;20186;-47
2022/07/02 06:23:39;;;;;;;7.00;2.15;;;;;;;;;;6171994;23;20017;-47
2022/07/02 06:26:06;;;;;;;10.25;2.30;;;;;;;;;;6177695;23;20024;-45
2022/07/02 06:28:32;;;;;;;8.00;2.22;;;;;;;;;;6170712;23;20028;-45
2022/07/02 06:31:00;;;;;;;4.72;2.28;;;;;;;;;;6173725;23;20009;-44
2022/07/02 06:33:27;;;;;;;5.85;2.20;;;;;;;;;;6167315;23;20013;-44
2022/07/02 06:35:53;;;;;;;6.53;2.40;;;;;;;;;;6174598;23;20021;-45
2022/07/02 06:38:20;;;;;;;7.50;2.50;;;;;;;;;;6165504;23;20260;-46
2022/07/02 06:40:46;;;;;;;6.22;2.28;;;;;;;;;;6174124;23;20013;-46
2022/07/02 06:43:13;;;;;;;5.05;2.35;;;;;;;;;;6161646;23;20545;-46
2022/07/02 06:45:39;;;;;;;7.40;2.80;;;;;;;;;;6166428;23;20091;-45
2022/07/02 06:48:07;;;;;;;8.57;2.80;;;;;;;;;;6160221;23;20020;-46
2022/07/02 06:50:34;;;;;;;7.20;2.60;;;;;;;;;;6176008;23;20080;-45
2022/07/02 06:53:00;;;;;;;7.38;2.90;;;;;;;;;;6159238;23;20044;-46
2022/07/02 06:55:27;;;;;;;9.48;2.53;;;;;;;;;;6171631;23;20561;-47
2022/07/02 06:57:53;;;;;;;11.02;2.53;;;;;;;;;;6165474;23;20017;-45
2022/07/02 07:00:21;;;;;;;9.82;1.95;;;;;;;;;;6144777;23;20024;-47
2022/07/02 07:02:47;;;;;;;6.75;2.15;;;;;;;;;;6137227;23;20025;-45
2022/07/02 07:05:15;;;;;;;8.35;2.50;;;;;;;;;;6168576;23;20413;-44
2022/07/02 07:07:42;;;;;;;5.68;3.28;;;;;;;;;;6171621;23;20266;-46
2022/07/02 07:10:09;;;;;;;8.90;2.25;;;;;;;;;;6175265;23;20016;-46
2022/07/02 07:12:35;;;;;;;5.07;1.90;;;;;;;;;;6167667;23;20016;-46
2022/07/02 07:15:06;;;;;;;11.00;2.75;;;;;;;;;;6178905;23;20021;-47
2022/07/02 07:17:33;;;;;;;7.07;2.38;;;;;;;;;;6172793;23;20081;-45
2022/07/02 07:19:59;;;;;;;4.63;2.38;;;;;;;;;;6173101;23;20017;-46
2022/07/02 07:22:27;;;;;;;6.53;2.50;;;;;;;;;;6172484;23;20028;-46
2022/07/02 07:24:54;;;;;;;4.45;2.03;;;;;;;;;;6166759;23;20020;-45
2022/07/02 07:27:20;;;;;;;5.70;2.22;;;;;;;;;;6167355;23;20048;-49
2022/07/02 07:29:47;;;;;;;5.93;2.85;;;;;;;;;;6173557;23;20049;-46
2022/07/02 07:32:13;;;;;;;6.53;2.58;;;;;;;;;;6166246;23;20536;-46
2022/07/02 07:34:40;;;;;;;8.73;2.60;;;;;;;;;;6171072;23;20527;-44
2022/07/02 07:37:07;;;;;;;6.28;2.15;;;;;;;;;;6159137;23;20020;-47
2022/07/02 07:39:35;;;;;;;6.35;2.28;;;;;;;;;;6169946;23;20013;-44
2022/07/02 07:42:01;;;;;;;5.18;2.35;;;;;;;;;;6141395;23;20490;-45
2022/07/02 07:44:27;;;;;;;5.35;1.92;;;;;;;;;;6171395;23;20021;-44
2022/07/02 07:46:54;;;;;;;6.43;1.98;;;;;;;;;;6165481;23;20507;-44
2022/07/02 07:49:20;;;;;;;5.25;2.40;;;;;;;;;;6175389;23;20017;-45
2022/07/02 07:51:47;;;;;;;7.18;3.03;;;;;;;;;;6168442;23;20017;-46
2022/07/02 07:54:14;;;;;;;6.90;2.78;;;;;;;;;;6170316;23;20013;-45
2022/07/02 07:56:43;;;;;;;3.97;1.77;;;;;;;;;;6167849;23;20596;-47
2022/07/02 07:59:09;;;;;;;8.38;2.67;;;;;;;;;;6170245;23;20081;-47
2022/07/02 08:01:36;;;;;;;7.93;1.98;;;;;;;;;;6169844;23;20017;-45
2022/07/02 08:04:03;;;;;;;6.57;2.03;;;;;;;;;;6175639;23;20073;-46
2022/07/02 08:06:29;;;;;;;7.30;2.25;;;;;;;;;;6167485;23;20020;-46
2022/07/02 08:08:57;;;;;;;9.95;2.20;;;;;;;;;;6175791;23;20017;-47
2022/07/02 08:11:23;;;;;;;4.38;1.90;;;;;;;;;;6166899;23;20017;-47
2022/07/02 08:13:51;;;;;;;7.20;1.88;;;;;;;;;;6173733;23;20013;-45
2022/07/02 08:16:18;;;;;;;6.78;2.50;;;;;;;;;;6164759;23;20017;-49
2022/07/02 08:18:44;;;;;;;6.68;2.40;;;;;;;;;;6173670;23;20088;-46
2022/07/02 08:21:11;;;;;;;4.35;1.90;;;;;;;;;;6164870;23;20017;-46
2022/07/02 08:23:37;;;;;;;4.40;2.15;;;;;;;;;;6173879;23;20021;-50
2022/07/02 08:26:04;;;;;;;9.18;2.28;;;;;;;;;;6169741;23;20533;-44
2022/07/02 08:28:30;;;;;;;7.53;2.22;;;;;;;;;;6182264;23;20020;-47
2022/07/02 08:30:59;;;;;;;7.05;1.83;;;;;;;;;;6158310;23;20017;-47
2022/07/02 08:33:25;;;;;;;5.70;1.77;;;;;;;;;;6175756;23;20071;-46
2022/07/02 08:35:52;;;;;;;5.07;2.38;;;;;;;;;;6131178;23;20598;-45
2022/07/02 08:38:18;;;;;;;8.60;2.30;;;;;;;;;;6174634;23;20021;-48
2022/07/02 08:40:46;;;;;;;8.70;2.45;;;;;;;;;;6167768;23;20403;-46
2022/07/02 08:43:13;;;;;;;8.57;2.47;;;;;;;;;;6135018;23;20079;-45
2022/07/02 08:45:42;;;;;;;6.43;2.10;;;;;;;;;;6144952;23;20020;-44
2022/07/02 08:48:10;;;;;;;5.25;2.00;;;;;;;;;;6144718;23;20020;-45
2022/07/02 08:50:37;;;;;;;11.83;2.70;;;;;;;;;;6134004;23;20013;-45
2022/07/02 08:53:04;;;;;;;5.18;2.50;;;;;;;;;;6174424;23;20084;-49
2022/07/02 08:55:33;;;;;;;3.90;2.42;;;;;;;;;;6161496;23;20028;-45
2022/07/02 08:58:00;;;;;;;6.75;2.28;;;;;;;;;;6175520;23;20014;-47
2022/07/02 09:00:28;;;;;;;2.95;2.08;;;;;;;;;;6157928;23;20071;-45
2022/07/02 09:02:56;;;;;;;4.13;2.33;;;;;;;;;;6161537;23;20037;-45
2022/07/02 09:05:25;;;;;;;6.20;2.33;;;;;;;;;;6163476;23;20387;-49
2022/07/02 09:07:52;;;;;;;7.68;2.70;;;;;;;;;;6169192;23;20236;-48
2022/07/02 09:10:20;;;;;;;6.30;2.05;;;;;;;;;;6167857;23;20569;-47
2022/07/02 09:12:47;;;;;;;4.57;1.55;;;;;;;;;;6161296;23;20017;-45
2022/07/02 09:15:14;;;;;;;5.28;1.80;;;;;;;;;;6171666;23;20020;-45
2022/07/02 09:17:41;;;;;;;2.13;1.50;;;;;;;;;;6166937;23;20013;-45
2022/07/02 09:20:09;;;;;;;4.60;1.80;;;;;;;;;;6170556;23;20016;-46
2022/07/02 09:22:40;;;;;;;3.20;1.85;;;;;;;;;;6170271;23;20071;-48
2022/07/02 09:25:08;;;;;;;4.38;1.95;;;;;;;;;;6172199;23;20028;-49
2022/07/02 09:27:34;;;;;;;7.65;2.20;;;;;;;;;;6171513;23;20082;-44
2022/07/02 09:30:01;;;;;;;5.10;2.05;;;;;;;;;;6178672;23;20013;-46
2022/07/02 09:32:27;;;;;;;6.00;1.98;;;;;;;;;;6134974;23;20076;-47
2022/07/02 09:34:54;;;;;;;3.20;1.60;;;;;;;;;;6176316;23;20087;-45
2022/07/02 09:37:21;;;;;;;4.10;1.38;;;;;;;;;;6131578;23;20020;-45
2022/07/02 09:39:49;;;;;;;5.47;1.58;;;;;;;;;;6168203;23;20013;-46
2022/07/02 09:42:23;;;;;;;4.10;1.80;;;;;;;;;;6176528;23;20036;-48
2022/07/02 09:44:51;;;;;;;5.15;2.22;;;;;;;;;;6176442;23;20021;-47
2022/07/02 09:47:17;;;;;;;5.05;1.80;;;;;;;;;;6167293;23;20079;-45
2022/07/02 09:49:48;;;;;;;9.70;3.08;;;;;;;;;;6157556;23;20013;-45
2022/07/02 09:52:15;;;;;;;4.35;1.77;;;;;;;;;;6164759;23;20084;-51
2022/07/02 09:54:42;;;;;;;3.28;2.03;;;;;;;;;;6170207;23;20389;-45
2022/07/02 09:57:10;;;;;;;8.65;1.80;;;;;;;;;;6162089;23;20476;-46
2022/07/02 09:59:37;;;;;;;4.07;1.70;;;;;;;;;;6171554;23;20017;-46
2022/07/02 10:02:04;;;;;;;5.70;1.58;;;;;;;;;;6129256;23;20029;-46
2022/07/02 10:04:31;;;;;;;3.72;1.20;;;;;;;;;;6167887;23;20021;-45
2022/07/02 10:06:59;;;;;;;5.45;1.85;;;;;;;;;;6164984;23;20025;-47
2022/07/02 10:09:26;;;;;;;3.88;1.33;;;;;;;;;;6176178;23;20023;-46
2022/07/02 10:11:54;;;;;;;4.97;1.38;;;;;;;;;;6141569;23;20390;-47
2022/07/02 10:14:24;;;;;;;4.60;1.90;;;;;;;;;;6162571;23;20076;-47
2022/07/02 10:16:52;;;;;;;5.25;1.40;;;;;;;;;;6168821;23;20024;-45
2022/07/02 10:19:19;;;;;;;6.90;1.40;;;;;;;;;;6142916;23;20031;-47
2022/07/02 10:21:47;;;;;;;4.45;1.40;;;;;;;;;;6168945;23;20780;-47
2022/07/02 10:24:14;;;;;;;3.58;1.02;;;;;;;;;;6165072;23;20017;-47
2022/07/02 10:26:41;;;;;;;1.20;0.90;;;;;;;;;;6164570;23;20092;-46
2022/07/02 10:29:07;;;;;;;3.38;1.08;;;;;;;;;;6169931;23;20518;-45
2022/07/02 10:31:38;;;;;;;2.90;1.33;;;;;;;;;;6173040;23;20025;-45
2022/07/02 10:34:10;;;;;;;4.95;1.17;;;;;;;;;;6161987;23;20483;-47
2022/07/02 10:36:37;;;;;;;3.17;1.00;;;;;;;;;;6170749;23;20036;-46
2022/07/02 10:39:03;;;;;;;2.22;1.02;;;;;;;;;;6158629;23;20368;-47
2022/07/02 10:41:30;;;;;;;2.92;0.77;;;;;;;;;;6170392;23;20017;-44
2022/07/02 10:43:57;;;;;;;3.88;1.05;;;;;;;;;;6163159;23;20027;-47
2022/07/02 10:46:26;;;;;;;4.68;1.00;;;;;;;;;;6168746;23;20048;-45
2022/07/02 10:48:55;;;;;;;2.23;1.03;;;;;;;;;;6158813;23;20017;-46
2022/07/02 10:51:24;;;;;;;5.57;0.93;;;;;;;;;;6164226;23;20251;-45
2022/07/02 10:53:51;;;;;;;5.45;1.27;;;;;;;;;;6176451;23;20037;-45
2022/07/02 10:56:18;;;;;;;1.60;0.93;;;;;;;;;;6159289;23;20016;-50
2022/07/02 10:58:46;;;;;;;2.25;1.10;;;;;;;;;;6173886;23;20052;-48
2022/07/02 11:01:14;;;;;;;4.47;1.30;;;;;;;;;;6162531;23;20017;-47
2022/07/02 11:03:51;;;;;;;2.78;0.95;;;;;;;;;;6171549;23;20013;-46
2022/07/02 11:06:22;;;;;;;4.55;1.55;;;;;;;;;;6161784;23;20432;-51
2022/07/02 11:08:51;;;;;;;3.72;1.33;;;;;;;;;;6168270;23;20021;-47
2022/07/02 11:11:19;;;;;;;4.05;1.63;;;;;;;;;;6170385;23;20048;-50
2022/07/02 11:13:47;;;;;;;3.67;1.65;;;;;;;;;;6158977;23;20085;-47
2022/07/02 11:16:22;;;;;;;2.22;1.33;;;;;;;;;;6170555;23;20021;-45
2022/07/02 11:18:48;;;;;;;3.72;1.50;;;;;;;;;;6150159;23;20043;-47
2022/07/02 11:21:15;;;;;;;4.00;1.60;;;;;;;;;;6169605;23;20021;-50
2022/07/02 11:23:44;;;;;;;2.92;1.77;;;;;;;;;;6161938;23;20013;-47
2022/07/02 11:26:15;;;;;;;4.75;2.15;;;;;;;;;;6174834;23;20028;-45
2022/07/02 11:28:43;;;;;;;4.00;2.17;;;;;;;;;;6159769;23;20140;-45
2022/07/02 11:31:10;;;;;;;5.35;2.20;;;;;;;;;;6175644;23;20047;-45
2022/07/02 11:33:41;;;;;;;3.17;1.92;;;;;;;;;;6166002;23;20013;-46
2022/07/02 11:36:08;;;;;;;7.13;3.08;;;;;;;;;;6175722;23;20044;-44
2022/07/02 11:38:37;;;;;;;7.82;2.88;;;;;;;;;;6158325;23;20021;-45
2022/07/02 11:41:15;;;;;;;5.25;2.70;;;;;;;;;;6169647;23;20079;-48
2022/07/02 11:43:44;;;;;;;4.30;2.53;;;;;;;;;;6161445;23;20021;-47
2022/07/02 11:46:11;;;;;;;8.65;3.38;;;;;;;;;;6171772;23;20440;-47
2022/07/02 11:48:38;;;;;;;5.47;2.67;;;;;;;;;;6157772;23;20155;-50
2022/07/02 11:51:04;;;;;;;11.90;2.30;;;;;;;;;;6171908;23;20025;-47
2022/07/02 11:53:31;;;;;;;4.80;2.63;;;;;;;;;;6166764;23;20092;-50
2022/07/02 11:56:06;;;;;;;4.35;2.40;;;;;;;;;;6160226;23;20048;-46
2022/07/02 11:58:40;;;;;;;7.10;2.88;;;;;;;;;;6163432;23;20016;-45
2022/07/02 12:01:06;;;;;;;10.77;3.40;;;;;;;;;;6167264;23;20021;-46
2022/07/02 12:03:33;;;;;;;7.05;3.00;;;;;;;;;;6160108;23;20051;-45
2022/07/02 12:05:59;;;;;;;5.50;2.70;;;;;;;;;;6157211;23;20025;-50
2022/07/02 12:08:27;;;;;;;6.93;3.03;;;;;;;;;;6163077;23;20013;-44
2022/07/02 12:10:53;;;;;;;11.25;3.42;;;;;;;;;;6163019;23;20017;-48
2022/07/02 12:13:21;;;;;;;8.02;3.53;;;;;;;;;;6143465;23;20017;-48
2022/07/02 12:15:48;;;;;;;5.97;2.40;;;;;;;;;;6157509;23;20024;-49
2022/07/02 12:18:15;;;;;;;4.03;2.45;;;;;;;;;;6167603;23;20394;-45
2022/07/02 12:20:42;;;;;;;0.73;0.68;;;;;;;;;;6155008;23;20017;-46
2022/07/02 12:23:09;;;;;;;0.30;0.30;;;;;;;;;;6140578;23;20017;-47
2022/07/02 12:25:42;;;;;;;3.58;0.32;;;;;;;;;;6164499;23;20455;-46
2022/07/02 12:29:52;;;;;;;1.13;0.17;;;;;;;;;;6168759;23;20013;-50
2022/07/02 12:30:56;;;;;;;1.20;0.38;;;;;;;;;;6166239;23;20033;-47
2022/07/02 12:33:33;;;;;;;4.97;0.55;;;;;;;;;;6170075;23;20085;-45
2022/07/02 12:36:00;;;;;;;1.38;0.45;;;;;;;;;;6170800;23;20025;-48
2022/07/02 12:38:27;;;;;;;0.40;0.40;;;;;;;;;;6164984;23;20017;-47
2022/07/02 12:40:58;;;;;;;0.50;0.50;;;;;;;;;;6115525;23;20017;-48
2022/07/02 12:43:24;;;;;;;4.45;0.50;;;;;;;;;;6102786;23;20024;-48
2022/07/02 12:45:51;;;;;;;0.43;0.40;;;;;;;;;;6144947;23;20029;-46
2022/07/02 12:48:19;;;;;;;1.75;0.60;;;;;;;;;;6156740;23;20024;-47
2022/07/02 12:50:48;;;;;;;2.45;0.47;;;;;;;;;;6168151;23;20056;-46
2022/07/02 12:53:15;;;;;;;1.35;0.73;;;;;;;;;;6156571;23;20077;-47
2022/07/02 12:55:43;;;;;;;1.65;0.80;;;;;;;;;;6157615;23;20028;-45
2022/07/02 12:58:11;;;;;;;4.32;0.77;;;;;;;;;;6138488;23;20394;-45
2022/07/02 13:00:39;;;;;;;2.63;0.88;;;;;;;;;;6157154;23;20017;-49
2022/07/02 13:03:06;;;;;;;1.77;0.70;;;;;;;;;;6165464;23;20037;-48
2022/07/02 13:05:35;;;;;;;1.83;0.82;;;;;;;;;;6153932;23;20017;-45
2022/07/02 13:08:01;;;;;;;2.20;0.97;;;;;;;;;;6174139;23;20013;-46
2022/07/02 13:10:28;;;;;;;1.88;1.02;;;;;;;;;;6168486;23;20017;-49
2022/07/02 13:12:54;;;;;;;1.55;0.80;;;;;;;;;;6173176;23;20068;-49
2022/07/02 13:15:21;;;;;;;2.30;0.88;;;;;;;;;;6167922;23;20828;-46
2022/07/02 13:17:48;;;;;;;2.03;0.70;;;;;;;;;;6168087;23;20013;-47
2022/07/02 13:20:14;;;;;;;2.10;0.82;;;;;;;;;;6156496;23;20013;-45
2022/07/02 13:22:42;;;;;;;2.80;1.13;;;;;;;;;;6152651;23;20021;-45
2022/07/02 13:25:10;;;;;;;1.13;0.75;;;;;;;;;;6163920;23;20025;-48
2022/07/02 13:27:37;;;;;;;1.58;0.90;;;;;;;;;;6150833;23;20017;-48
2022/07/02 13:30:04;;;;;;;2.55;1.15;;;;;;;;;;6166405;23;20021;-45
2022/07/02 13:32:31;;;;;;;1.13;0.88;;;;;;;;;;6157235;23;20017;-46
2022/07/02 13:34:57;;;;;;;3.53;1.05;;;;;;;;;;6176134;23;20460;-46
2022/07/02 13:37:24;;;;;;;2.40;0.95;;;;;;;;;;6157786;23;20153;-48
2022/07/02 13:39:51;;;;;;;1.20;0.90;;;;;;;;;;6169122;23;20021;-46
2022/07/02 13:42:18;;;;;;;2.05;1.00;;;;;;;;;;6161517;23;20017;-49
2022/07/02 13:44:44;;;;;;;0.82;0.70;;;;;;;;;;6162341;23;20013;-46
2022/07/02 13:47:11;;;;;;;2.13;0.90;;;;;;;;;;6151479;23;20352;-45
2022/07/02 13:49:37;;;;;;;1.98;1.20;;;;;;;;;;6168306;23;20389;-46
2022/07/02 13:52:05;;;;;;;1.20;0.68;;;;;;;;;;6165892;23;20013;-47
2022/07/02 13:54:31;;;;;;;1.77;0.80;;;;;;;;;;6123917;23;20599;-46
2022/07/02 13:57:00;;;;;;;4.53;0.90;;;;;;;;;;6171926;23;20518;-47
2022/07/02 13:59:27;;;;;;;1.52;1.08;;;;;;;;;;6159248;23;20279;-45
2022/07/02 14:01:54;;;;;;;1.70;1.02;;;;;;;;;;6168336;23;20048;-45
2022/07/02 14:04:20;;;;;;;2.38;0.90;;;;;;;;;;6160420;23;20028;-45
2022/07/02 14:06:47;;;;;;;2.78;1.02;;;;;;;;;;6142402;23;20392;-46
2022/07/02 14:09:13;;;;;;;2.30;0.80;;;;;;;;;;6167200;23;20017;-47
2022/07/02 14:11:40;;;;;;;1.45;0.93;;;;;;;;;;6169747;23;20017;-46
2022/07/02 14:14:08;;;;;;;3.00;1.08;;;;;;;;;;6152284;23;20028;-48
2022/07/02 14:16:35;;;;;;;0.90;0.90;;;;;;;;;;6160474;23;20017;-45
2022/07/02 14:19:01;;;;;;;1.92;1.10;;;;;;;;;;6160199;23;20055;-44
2022/07/02 14:21:28;;;;;;;1.33;0.77;;;;;;;;;;6124642;23;20354;-47
2022/07/02 14:23:55;;;;;;;1.35;0.93;;;;;;;;;;6161592;23;20102;-45
2022/07/02 14:26:22;;;;;;;3.60;0.88;;;;;;;;;;6156133;23;20025;-45
2022/07/02 14:28:48;;;;;;;7.68;1.10;;;;;;;;;;6146607;23;20020;-46
2022/07/02 14:31:17;;;;;;;1.92;0.90;;;;;;;;;;6152005;23;20078;-45
2022/07/02 14:33:44;;;;;;;1.27;1.13;;;;;;;;;;6167071;23;20013;-45
2022/07/02 14:36:10;;;;;;;3.15;1.17;;;;;;;;;;6164774;23;20013;-46
2022/07/02 14:38:37;;;;;;;2.38;0.75;;;;;;;;;;6164010;23;20024;-46
2022/07/02 14:43:48;;;;;;;0.93;0.60;;;;;;;;;;6159842;23;20162;-46
2022/07/02 14:46:15;;;;;;;0.70;0.70;;;;;;;;;;6136135;23;20075;-46
2022/07/02 14:48:43;;;;;;;1.15;0.73;;;;;;;;;;6156322;23;20091;-46
2022/07/02 14:51:09;;;;;;;0.57;0.50;;;;;;;;;;6163183;23;20017;-45